Time;durP1;ratioP1;P1;durP2;ratioP2;P2;SDS_P1;SDS_P2;PMS_P1;PMS_P2;Temp;Humidity;BMP_temperature;BMP_pressure;BME280_temperature;BME280_humidity;BME280_pressure;Samples;Min_cycle;Max_cycle;Signal;HPM_P1;HPM_P2
2023/04/10 00:00:03;;;;;;;;;;;;;;;16.54;47.57;101068.31;5076893;28;1093;-49
2023/04/10 00:02:30;;;;;;;;;;;;;;;16.60;47.93;101053.53;5082149;28;1074;-48
2023/04/10 00:04:55;;;;;;;;;;;;;;;17.29;46.78;101057.09;5079311;28;1058;-46
2023/04/10 00:07:21;;;;;;;;;;;;;;;16.50;47.54;101056.22;5079124;28;1910;-46
2023/04/10 00:09:46;;;;;;;;;;;;;;;16.33;46.94;101051.72;5078966;28;1094;-49
2023/04/10 00:12:13;;;;;;;;;;;;;;;16.91;47.52;101049.03;5080898;28;1039;-50
2023/04/10 00:14:39;;;;;;;;;;;;;;;16.61;47.57;101046.94;5089848;28;1050;-45
2023/04/10 00:17:04;;;;;;;;;;;;;;;16.21;47.46;101042.88;5078791;28;1069;-47
2023/04/10 00:19:30;;;;;;;;;;;;;;;16.04;46.91;101054.00;5078821;28;1075;-48
2023/04/10 00:21:55;;;;;;;;;;;;;;;16.96;46.81;101048.22;5078749;28;1166;-46
2023/04/10 00:24:21;;;;;;;;;;;;;;;16.19;47.87;101048.63;5080896;28;1055;-47
2023/04/10 00:26:47;;;;;;;;;;;;;;;16.08;46.94;101044.97;5070510;28;1906;-46
2023/04/10 00:29:12;;;;;;;;;;;;;;;16.76;46.95;101044.28;5060716;28;1157;-45
2023/04/10 00:31:38;;;;;;;;;;;;;;;16.42;47.68;101039.16;5078265;28;1138;-46
2023/04/10 00:34:04;;;;;;;;;;;;;;;16.13;47.19;101033.22;5069677;28;1123;-45
2023/04/10 00:36:30;;;;;;;;;;;;;;;15.85;46.64;101040.72;5072886;28;1066;-41
2023/04/10 00:38:56;;;;;;;;;;;;;;;17.03;46.85;101035.06;5067208;28;1007;-45
2023/04/10 00:41:22;;;;;;;;;;;;;;;16.33;47.61;101032.53;5078305;28;994;-47
2023/04/10 00:43:48;;;;;;;;;;;;;;;16.04;47.16;101021.91;5078283;28;1098;-42
2023/04/10 00:46:14;;;;;;;;;;;;;;;17.02;46.62;101019.66;5060161;28;1333;-44
2023/04/10 00:48:40;;;;;;;;;;;;;;;16.73;47.70;101028.34;5064073;28;1910;-45
2023/04/10 00:51:05;;;;;;;;;;;;;;;18.35;45.06;101025.47;5082827;28;1125;-47
2023/04/10 00:53:31;;;;;;;;;;;;;;;17.51;47.10;101020.31;5059949;28;1066;-43
2023/04/10 00:55:56;;;;;;;;;;;;;;;16.75;47.61;101025.31;5060293;28;1659;-43
2023/04/10 00:58:22;;;;;;;;;;;;;;;16.81;47.89;101023.41;5060475;28;1127;-43
2023/04/10 01:00:48;;;;;;;;;;;;;;;16.98;47.75;101018.53;5079220;28;1007;-44
2023/04/10 01:03:14;;;;;;;;;;;;;;;16.49;47.70;101007.91;5048084;28;1137;-41
2023/04/10 01:05:49;;;;;;;;;;;;;;;16.39;46.68;101011.41;5058893;28;1197;-47
2023/04/10 01:08:17;;;;;;;;;;;;;;;16.76;47.42;101011.31;5066963;28;1983;-43
2023/04/10 01:10:47;;;;;;;;;;;;;;;16.68;47.53;101005.53;5060289;28;1143;-45
2023/04/10 01:13:19;;;;;;;;;;;;;;;16.29;47.50;100992.97;5061373;28;1559;-45
2023/04/10 01:15:55;;;;;;;;;;;;;;;17.48;46.74;101001.59;5072968;28;1071;-46
2023/04/10 01:18:25;;;;;;;;;;;;;;;16.54;47.93;101002.44;5070706;28;1031;-46
2023/04/10 01:20:51;;;;;;;;;;;;;;;16.29;47.14;100990.25;5059538;28;1023;-45
2023/04/10 01:23:35;;;;;;;;;;;;;;;16.11;47.08;100990.69;5077323;28;1178;-43
2023/04/10 01:26:05;;;;;;;;;;;;;;;16.84;47.32;101004.47;5064591;28;942;-42
2023/04/10 01:28:47;;;;;;;;;;;;;;;16.19;47.47;100990.19;5043189;28;1902;-46
2023/04/10 01:31:14;;;;;;;;;;;;;;;16.00;46.95;100995.28;5059815;28;1023;-47
2023/04/10 01:33:44;;;;;;;;;;;;;;;17.15;46.63;100998.25;5043066;28;1285;-47
2023/04/10 01:36:10;;;;;;;;;;;;;;;16.30;47.50;100991.06;5077217;28;1661;-43
2023/04/10 01:38:36;;;;;;;;;;;;;;;16.62;47.61;100987.38;5070087;28;1058;-45
2023/04/10 01:41:03;;;;;;;;;;;;;;;16.92;47.40;100995.72;5059279;28;1034;-48
2023/04/10 01:43:30;;;;;;;;;;;;;;;16.32;47.69;100991.63;5059511;28;1140;-42
2023/04/10 01:45:57;;;;;;;;;;;;;;;16.49;47.62;100992.25;5058943;28;1087;-42
2023/04/10 01:48:23;;;;;;;;;;;;;;;16.80;47.52;100994.28;5059240;28;1901;-45
2023/04/10 01:50:48;;;;;;;;;;;;;;;16.32;47.51;100992.44;5081949;28;868;-46
2023/04/10 01:53:14;;;;;;;;;;;;;;;16.90;47.49;101000.69;5058824;28;1062;-49
2023/04/10 01:55:41;;;;;;;;;;;;;;;16.42;47.69;100989.78;5059047;28;1187;-43
2023/04/10 01:58:08;;;;;;;;;;;;;;;16.14;47.17;100988.22;5039628;28;1318;-49
2023/04/10 02:00:41;;;;;;;;;;;;;;;16.72;47.23;100990.97;5038760;28;1134;-45
2023/04/10 02:03:08;;;;;;;;;;;;;;;16.37;47.59;100984.25;5071599;28;1115;-44
2023/04/10 02:05:39;;;;;;;;;;;;;;;16.07;47.16;100973.91;5058699;28;2048;-41
2023/04/10 02:08:08;;;;;;;;;;;;;;;16.89;47.13;100982.53;5058579;28;1906;-48
2023/04/10 02:10:40;;;;;;;;;;;;;;;16.33;47.30;100974.91;5059029;28;1147;-46
2023/04/10 02:13:06;;;;;;;;;;;;;;;16.02;46.91;100969.25;5060905;28;1133;-47
2023/04/10 02:15:32;;;;;;;;;;;;;;;15.81;46.88;100971.03;5067751;28;1205;-49
2023/04/10 02:17:57;;;;;;;;;;;;;;;15.94;46.52;100971.66;5058280;28;2214;-43
2023/04/10 02:20:24;;;;;;;;;;;;;;;16.55;47.01;100973.88;5058778;28;1142;-46
2023/04/10 02:22:50;;;;;;;;;;;;;;;16.06;47.30;100970.38;5076455;28;1034;-42
2023/04/10 02:25:16;;;;;;;;;;;;;;;17.65;45.59;100973.84;5060593;28;1078;-42
2023/04/10 02:27:42;;;;;;;;;;;;;;;16.66;47.48;100963.75;5086910;28;1905;-44
2023/04/10 02:30:08;;;;;;;;;;;;;;;16.18;47.32;100958.34;5076407;28;1213;-46
2023/04/10 02:32:35;;;;;;;;;;;;;;;17.14;46.44;100955.38;5058985;28;1123;-43
2023/04/10 02:35:01;;;;;;;;;;;;;;;16.31;47.64;100966.09;5076551;28;1061;-47
2023/04/10 02:37:28;;;;;;;;;;;;;;;16.01;47.33;100967.59;5060785;28;1242;-43
2023/04/10 02:39:54;;;;;;;;;;;;;;;17.08;46.59;100962.78;5061738;28;1313;-45
2023/04/10 02:42:22;;;;;;;;;;;;;;;16.47;47.61;100968.94;5058490;28;1130;-43
2023/04/10 02:44:49;;;;;;;;;;;;;;;17.72;45.98;100975.19;5057704;28;1295;-47
2023/04/10 02:47:15;;;;;;;;;;;;;;;18.07;45.41;100965.25;5058317;28;1975;-44
2023/04/10 02:49:44;;;;;;;;;;;;;;;16.82;47.99;100968.22;5058648;28;1148;-45
2023/04/10 02:52:13;;;;;;;;;;;;;;;16.57;47.56;100964.28;5058120;28;1269;-45
2023/04/10 02:54:39;;;;;;;;;;;;;;;16.33;46.84;100963.09;5058230;28;1164;-44
2023/04/10 02:57:05;;;;;;;;;;;;;;;16.01;46.94;100964.84;5045636;28;1305;-48
2023/04/10 02:59:32;;;;;;;;;;;;;;;17.09;47.09;100962.53;5075642;28;1122;-49
2023/04/10 03:01:59;;;;;;;;;;;;;;;16.46;47.30;100961.78;5058333;28;1259;-49
2023/04/10 03:04:27;;;;;;;;;;;;;;;18.09;45.54;100959.47;5057209;28;1101;-49
2023/04/10 03:06:53;;;;;;;;;;;;;;;17.21;47.33;100961.47;5058180;28;1969;-46
2023/04/10 03:09:19;;;;;;;;;;;;;;;16.67;47.32;100958.00;5075926;28;1170;-49
2023/04/10 03:11:44;;;;;;;;;;;;;;;16.39;47.17;100962.84;5076189;28;1229;-49
2023/04/10 03:14:10;;;;;;;;;;;;;;;16.22;46.71;100957.53;5078070;28;1125;-46
2023/04/10 03:16:36;;;;;;;;;;;;;;;16.10;46.49;100964.34;5057968;28;1224;-50
2023/04/10 03:19:03;;;;;;;;;;;;;;;16.95;46.90;100964.16;5075784;28;1221;-50
2023/04/10 03:21:28;;;;;;;;;;;;;;;16.31;47.46;100965.28;5075945;28;1130;-47
2023/04/10 03:23:55;;;;;;;;;;;;;;;17.62;46.53;100958.72;5076043;28;1125;-48
2023/04/10 03:26:22;;;;;;;;;;;;;;;17.16;47.40;100958.69;5083511;28;1126;-45
2023/04/10 03:28:49;;;;;;;;;;;;;;;16.56;47.79;100954.41;5045158;28;1985;-48
2023/04/10 03:31:15;;;;;;;;;;;;;;;16.33;47.14;100947.44;5076029;28;1194;-50
2023/04/10 03:33:42;;;;;;;;;;;;;;;16.10;46.82;100947.88;5058003;28;1272;-49
2023/04/10 03:36:08;;;;;;;;;;;;;;;16.11;46.52;100944.06;5077013;28;1054;-45
2023/04/10 03:38:34;;;;;;;;;;;;;;;16.38;47.87;100941.16;5082626;28;1132;-45
2023/04/10 03:41:00;;;;;;;;;;;;;;;16.19;47.10;100941.63;5061676;28;1210;-47
2023/04/10 03:43:29;;;;;;;;;;;;;;;17.56;46.54;100935.91;5045377;28;1226;-44
2023/04/10 03:45:55;;;;;;;;;;;;;;;16.50;47.94;100938.19;5061700;28;1185;-48
2023/04/10 03:48:22;;;;;;;;;;;;;;;16.18;47.71;100937.22;5061698;28;1917;-47
2023/04/10 03:50:47;;;;;;;;;;;;;;;16.05;46.69;100930.31;5088946;28;1157;-46
2023/04/10 03:53:15;;;;;;;;;;;;;;;17.36;46.61;100939.47;5061217;28;1114;-46
2023/04/10 03:55:41;;;;;;;;;;;;;;;16.32;47.98;100940.31;5045317;28;1289;-46
2023/04/10 03:58:08;;;;;;;;;;;;;;;16.03;47.34;100935.25;5061239;28;1229;-52
2023/04/10 04:00:34;;;;;;;;;;;;;;;16.56;47.63;100932.47;5059337;28;1490;-53
2023/04/10 04:03:11;;;;;;;;;;;;;;;16.58;47.68;100938.50;5064971;28;1331;-47
2023/04/10 04:05:55;;;;;;;;;;;;;;;16.08;47.51;100943.47;5079154;28;1177;-51
2023/04/10 04:08:35;;;;;;;;;;;;;;;16.83;47.45;100941.56;5061397;28;1963;-49
2023/04/10 04:11:06;;;;;;;;;;;;;;;16.22;47.68;100951.25;5073220;28;971;-46
2023/04/10 04:13:35;;;;;;;;;;;;;;;15.95;47.47;100943.13;5060003;28;1214;-48
2023/04/10 04:16:24;;;;;;;;;;;;;;;17.03;46.58;100949.88;5040995;28;1119;-50
2023/04/10 04:18:56;;;;;;;;;;;;;;;16.20;47.74;100958.91;5041098;28;1242;-50
2023/04/10 04:21:42;;;;;;;;;;;;;;;17.77;45.87;100947.69;5071148;28;1107;-46
2023/04/10 04:24:18;;;;;;;;;;;;;;;17.16;47.26;100955.94;5058646;28;1561;-48
2023/04/10 04:26:52;;;;;;;;;;;;;;;16.48;47.47;100945.84;5043089;28;1929;-48
2023/04/10 04:29:37;;;;;;;;;;;;;;;16.22;46.93;100952.06;5040519;28;1243;-51
2023/04/10 04:32:16;;;;;;;;;;;;;;;16.76;47.40;100959.13;5058731;28;2096;-49
2023/04/10 04:35:20;;;;;;;;;;;;;;;16.47;47.41;100952.47;4977390;28;1267;-49
2023/04/10 04:38:11;;;;;;;;;;;;;;;16.33;47.49;100957.63;4961830;28;1266;-47
2023/04/10 04:40:37;;;;;;;;;;;;;;;16.78;47.71;100964.34;5031148;28;1248;-47
2023/04/10 04:43:23;;;;;;;;;;;;;;;16.35;47.13;100961.72;5047218;28;1215;-49
2023/04/10 04:46:03;;;;;;;;;;;;;;;17.73;46.00;100956.78;5078499;28;1608;-50
2023/04/10 04:48:52;;;;;;;;;;;;;;;16.58;47.39;100960.44;5066918;28;1964;-48
2023/04/10 04:51:43;;;;;;;;;;;;;;;16.20;47.37;100958.91;5073034;28;1127;-50
2023/04/10 04:54:29;;;;;;;;;;;;;;;16.05;46.68;100957.72;5057447;28;1326;-48
2023/04/10 04:57:12;;;;;;;;;;;;;;;16.30;46.99;100955.38;5078109;28;1141;-50
2023/04/10 05:00:03;;;;;;;;;;;;;;;16.55;47.56;100946.44;5060317;28;1229;-46
2023/04/10 05:02:47;;;;;;;;;;;;;;;16.03;47.75;100951.69;5082873;28;1178;-46
2023/04/10 05:05:35;;;;;;;;;;;;;;;17.27;46.98;100954.84;5047842;28;1200;-48
2023/04/10 05:08:24;;;;;;;;;;;;;;;16.39;48.67;100956.53;5048718;28;1975;-45
2023/04/10 05:11:08;;;;;;;;;;;;;;;16.59;47.92;100953.88;5077768;28;1090;-48
2023/04/10 05:13:54;;;;;;;;;;;;;;;16.34;48.67;100957.34;5027278;28;1146;-50
2023/04/10 05:16:33;;;;;;;;;;;;;;;16.14;48.86;100954.50;5060321;28;1107;-46
2023/04/10 05:19:19;;;;;;;;;;;;;;;16.05;49.02;100960.47;5077456;28;1233;-46
2023/04/10 05:22:03;;;;;;;;;;;;;;;15.83;49.55;100965.28;5077781;28;1118;-47
2023/04/10 05:24:47;;;;;;;;;;;;;;;15.76;49.93;100959.16;5078420;28;1130;-48
2023/04/10 05:27:20;;;;;;;;;;;;;;;15.64;50.04;100956.59;5079095;28;1902;-49
2023/04/10 05:30:06;;;;;;;;;;;;;;;15.48;50.34;100964.69;5060003;28;1235;-47
2023/04/10 05:32:45;;;;;;;;;;;;;;;16.87;47.22;100962.75;5059250;28;1046;-49
2023/04/10 05:35:43;;;;;;;;;;;;;;;16.51;47.98;100962.63;5059600;28;1160;-46
2023/04/10 05:38:20;;;;;;;;;;;;;;;16.01;49.25;100967.59;5059722;28;1134;-50
2023/04/10 05:41:24;;;;;;;;;;;;;;;15.73;49.63;100966.81;5052510;28;1269;-51
2023/04/10 05:44:00;;;;;;;;;;;;;;;15.54;50.38;100955.44;5059590;28;1182;-49
2023/04/10 05:46:45;;;;;;;;;;;;;;;15.47;50.34;100962.22;5045535;28;1914;-49
2023/04/10 05:49:43;;;;;;;;;;;;;;;16.48;48.16;100960.44;5064538;28;1507;-48
2023/04/10 05:52:28;;;;;;;;;;;;;;;16.96;46.74;100956.72;5063140;28;1373;-51
2023/04/10 05:55:12;;;;;;;;;;;;;;;16.06;49.03;100959.41;5077046;28;868;-51
2023/04/10 05:57:53;;;;;;;;;;;;;;;15.82;49.84;100969.94;5059555;28;1310;-47
2023/04/10 06:00:41;;;;;;;;;;;;;;;15.61;50.15;100962.63;5068705;28;1306;-50
2023/04/10 06:03:38;;;;;;;;;;;;;;;15.69;49.92;100973.09;5067592;28;1348;-47
2023/04/10 06:06:05;;;;;;;;;;;;;;;17.25;46.06;100968.03;5061315;28;1141;-50
2023/04/10 06:08:31;;;;;;;;;;;;;;;16.67;47.33;100971.72;5059010;28;1905;-46
2023/04/10 06:10:57;;;;;;;;;;;;;;;16.12;48.95;100973.13;5076542;28;1074;-50
2023/04/10 06:13:23;;;;;;;;;;;;;;;15.84;49.67;100973.25;5077276;28;1127;-50
2023/04/10 06:15:53;;;;;;;;;;;;;;;15.67;49.85;100967.88;5057981;28;1478;-51
2023/04/10 06:18:18;;;;;;;;;;;;;;;15.53;50.24;100972.97;5038923;28;1183;-49
2023/04/10 06:20:44;;;;;;;;;;;;;;;15.58;50.54;100969.44;5056992;28;1079;-50
2023/04/10 06:23:11;;;;;;;;;;;;;;;17.16;46.29;100970.50;5076806;28;1206;-48
2023/04/10 06:25:37;;;;;;;;;;;;;;;16.41;48.00;100971.63;5076496;28;1034;-48
2023/04/10 06:28:03;;;;;;;;;;;;;;;15.95;49.44;100976.03;5068666;28;1914;-45
2023/04/10 06:30:29;;;;;;;;;;;;;;;15.66;50.08;100977.19;5046602;28;1356;-47
2023/04/10 06:32:55;;;;;;;;;;;;;;;15.54;50.39;100984.75;5038055;28;1238;-47
2023/04/10 06:35:21;;;;;;;;;;;;;;;16.66;47.93;100982.97;5038359;28;1389;-51
2023/04/10 06:37:47;;;;;;;;;;;;;;;16.84;46.90;100987.97;5038342;28;1311;-50
2023/04/10 06:40:14;;;;;;;;;;;;;;;16.15;48.78;100989.06;5038646;28;1367;-48
2023/04/10 06:42:40;;;;;;;;;;;;;;;15.81;49.56;100990.22;5055897;28;1261;-47
2023/04/10 06:45:20;;;;;;;;;;;;;;;15.65;50.09;100991.16;5037828;28;1397;-51
2023/04/10 06:47:45;;;;;;;;;;;;;;;15.59;50.29;100994.94;5055724;28;1967;-49
2023/04/10 06:50:11;;;;;;;;;;;;;;;17.12;46.66;100996.06;5055643;28;1261;-49
2023/04/10 06:52:37;;;;;;;;;;;;;;;16.86;47.10;100994.03;5060300;28;1338;-50
2023/04/10 06:55:02;;;;;;;;;;;;;;;16.17;48.64;100993.19;5073369;28;1202;-49
2023/04/10 06:57:28;;;;;;;;;;;;;;;15.87;49.56;100993.81;5075673;28;1316;-49
2023/04/10 06:59:54;;;;;;;;;;;;;;;15.71;50.15;100996.41;5075575;28;1309;-48
2023/04/10 07:02:19;;;;;;;;;;;;;;;15.58;50.22;100991.38;5075547;28;1213;-47
2023/04/10 07:04:45;;;;;;;;;;;;;;;16.03;49.33;100998.34;5062779;28;1265;-48
2023/04/10 07:07:12;;;;;;;;;;;;;;;17.41;45.88;100994.44;5055206;28;1906;-49
2023/04/10 07:09:38;;;;;;;;;;;;;;;16.32;48.27;100981.47;5055887;28;1328;-47
2023/04/10 07:12:03;;;;;;;;;;;;;;;15.98;49.30;100994.72;5055528;28;1210;-49
2023/04/10 07:14:30;;;;;;;;;;;;;;;15.78;49.87;100990.72;5055473;28;1285;-49
2023/04/10 07:16:55;;;;;;;;;;;;;;;15.64;50.30;100987.59;5082245;28;1238;-51
2023/04/10 07:19:21;;;;;;;;;;;;;;;15.51;50.32;100988.84;5076107;28;1122;-50
2023/04/10 07:21:49;;;;;;;;;;;;;;;16.70;47.65;100990.41;5075361;28;1078;-45
2023/04/10 07:24:18;;;;;;;;;;;;;;;16.87;47.12;100997.59;5075995;28;1182;-49
2023/04/10 07:26:44;;;;;;;;;;;;;;;16.17;48.93;100998.69;5062007;28;1153;-48
2023/04/10 07:29:09;;;;;;;;;;;;;;;15.81;49.88;100998.44;5076632;28;1976;-45
2023/04/10 07:31:35;;;;;;;;;;;;;;;15.63;50.38;100991.41;5070735;28;1242;-46
2023/04/10 07:34:01;;;;;;;;;;;;;;;15.49;50.53;100995.69;5081307;28;1162;-51
2023/04/10 07:36:27;;;;;;;;;;;;;;;16.60;47.82;100991.19;5055890;28;1131;-50
2023/04/10 07:38:53;;;;;;;;;;;;;;;17.21;46.29;100998.00;5076210;28;1031;-50
2023/04/10 07:41:19;;;;;;;;;;;;;;;16.25;48.82;100995.41;5077080;28;871;-49
2023/04/10 07:43:45;;;;;;;;;;;;;;;15.91;49.39;100992.22;5075679;28;1229;-46
2023/04/10 07:46:11;;;;;;;;;;;;;;;15.74;50.20;100984.94;5068834;28;1244;-54
2023/04/10 07:48:36;;;;;;;;;;;;;;;15.49;50.62;100965.53;5070768;28;1878;-52
2023/04/10 07:51:02;;;;;;;;;;;;;;;15.47;50.63;100984.16;5079919;28;1102;-52
2023/04/10 07:53:27;;;;;;;;;;;;;;;16.34;48.72;100982.03;5082235;28;899;-50
2023/04/10 07:55:53;;;;;;;;;;;;;;;17.45;45.89;100970.81;5073875;28;1037;-48
2023/04/10 07:58:18;;;;;;;;;;;;;;;16.44;48.46;100967.53;5072515;28;1117;-50
2023/04/10 08:00:44;;;;;;;;;;;;;;;15.98;49.42;100965.38;5056145;28;1274;-48
2023/04/10 08:03:10;;;;;;;;;;;;;;;15.77;50.09;100964.38;5061487;28;1179;-45
2023/04/10 08:05:36;;;;;;;;;;;;;;;15.59;50.49;100965.63;5076774;28;844;-46
2023/04/10 08:08:01;;;;;;;;;;;;;;;15.48;50.76;100967.44;5064473;28;1913;-50
2023/04/10 08:10:27;;;;;;;;;;;;;;;16.17;49.31;100959.44;5076327;28;883;-48
2023/04/10 08:12:52;;;;;;;;;;;;;;;17.34;46.49;100952.66;5074148;28;1090;-52
2023/04/10 08:15:18;;;;;;;;;;;;;;;16.39;48.27;100953.78;5074529;28;1015;-51
2023/04/10 08:17:43;;;;;;;;;;;;;;;15.95;49.51;100952.19;5076379;28;1005;-47
2023/04/10 08:20:10;;;;;;;;;;;;;;;15.69;50.45;100949.25;5080141;28;1197;-48
2023/04/10 08:22:35;;;;;;;;;;;;;;;15.58;50.37;100950.25;5061707;28;1023;-49
2023/04/10 08:25:01;;;;;;;;;;;;;;;16.07;49.24;100949.22;5080029;28;1033;-51
2023/04/10 08:27:27;;;;;;;;;;;;;;;17.35;46.22;100946.06;5077199;28;1893;-49
2023/04/10 08:29:52;;;;;;;;;;;;;;;16.32;48.78;100947.72;5067830;28;1008;-51
2023/04/10 08:32:18;;;;;;;;;;;;;;;15.97;49.66;100944.50;5077521;28;1030;-49
2023/04/10 08:34:44;;;;;;;;;;;;;;;15.78;50.04;100937.78;5077371;28;1186;-51
2023/04/10 08:37:11;;;;;;;;;;;;;;;15.61;50.62;100946.97;5063921;28;1194;-52
2023/04/10 08:39:36;;;;;;;;;;;;;;;15.52;50.84;100946.66;5077392;28;1007;-49
2023/04/10 08:42:02;;;;;;;;;;;;;;;17.07;46.92;100945.50;5062350;28;1214;-50
2023/04/10 08:44:28;;;;;;;;;;;;;;;17.00;46.90;100944.09;5059135;28;1128;-52
2023/04/10 08:46:53;;;;;;;;;;;;;;;16.21;48.85;100949.59;5056324;28;1984;-52
2023/04/10 08:49:23;;;;;;;;;;;;;;;15.94;49.66;100941.50;5056872;28;1234;-49
2023/04/10 08:51:54;;;;;;;;;;;;;;;15.76;50.13;100937.22;5056690;28;1143;-50
2023/04/10 08:54:22;;;;;;;;;;;;;;;15.59;50.47;100940.94;5041805;28;985;-51
2023/04/10 08:56:49;;;;;;;;;;;;;;;15.92;49.92;100936.25;5038826;28;1247;-50
2023/04/10 08:59:14;;;;;;;;;;;;;;;17.37;46.31;100932.88;5056632;28;1194;-51
2023/04/10 09:01:40;;;;;;;;;;;;;;;16.49;48.23;100915.38;5071239;28;1123;-51
2023/04/10 09:04:06;;;;;;;;;;;;;;;16.11;49.36;100930.34;5077798;28;1026;-51
2023/04/10 09:06:31;;;;;;;;;;;;;;;15.84;49.89;100918.41;5082779;28;1078;-50
2023/04/10 09:08:58;;;;;;;;;;;;;;;15.65;50.44;100915.22;5076642;28;1913;-48
2023/04/10 09:11:42;;;;;;;;;;;;;;;16.07;49.88;100917.16;5077095;28;1146;-49
2023/04/10 09:14:19;;;;;;;;;;;;;;;17.47;46.06;100911.97;5045623;28;1186;-51
2023/04/10 09:16:45;;;;;;;;;;;;;;;16.43;48.57;100909.06;5081825;28;1023;-48
2023/04/10 09:19:10;;;;;;;;;;;;;;;16.02;49.87;100897.94;5076725;28;1054;-50
2023/04/10 09:21:36;;;;;;;;;;;;;;;15.83;50.30;100894.81;5076654;28;1194;-47
2023/04/10 09:24:01;;;;;;;;;;;;;;;15.68;50.54;100887.28;5076444;28;1055;-50
2023/04/10 09:26:27;;;;;;;;;;;;;;;15.56;50.81;100889.41;5077004;28;1123;-47
2023/04/10 09:28:56;;;;;;;;;;;;;;;15.47;51.17;100893.72;5058317;28;1913;-50
2023/04/10 09:31:35;;;;;;;;;;;;;;;15.68;50.60;100887.28;5076775;28;1035;-48
2023/04/10 09:34:21;;;;;;;;;;;;;;;17.26;46.63;100893.59;5063579;28;869;-49
2023/04/10 09:36:53;;;;;;;;;;;;;;;16.62;48.27;100892.13;5075958;28;1224;-52
2023/04/10 09:39:19;;;;;;;;;;;;;;;16.07;49.60;100884.25;5076150;28;1007;-50
2023/04/10 09:41:48;;;;;;;;;;;;;;;15.80;50.35;100883.56;5049441;28;915;-46
2023/04/10 09:44:15;;;;;;;;;;;;;;;15.64;50.88;100875.22;5076468;28;1083;-53
2023/04/10 09:46:41;;;;;;;;;;;;;;;16.07;50.04;100877.91;5075778;28;1184;-51
2023/04/10 09:49:08;;;;;;;;;;;;;;;17.50;46.29;100870.19;5076097;28;1982;-51
2023/04/10 09:51:34;;;;;;;;;;;;;;;16.54;48.47;100871.50;5075759;28;1023;-52
2023/04/10 09:54:00;;;;;;;;;;;;;;;16.10;49.55;100871.06;5068901;28;910;-50
2023/04/10 09:56:26;;;;;;;;;;;;;;;15.86;50.34;100866.84;5055669;28;1206;-48
2023/04/10 09:59:03;;;;;;;;;;;;;;;15.68;50.80;100870.00;5055327;28;1198;-51
2023/04/10 10:01:29;;;;;;;;;;;;;;;15.51;50.99;100865.50;5038293;28;1290;-51
2023/04/10 10:03:55;;;;;;;;;;;;;;;15.52;51.06;100860.88;5037890;28;1025;-52
2023/04/10 10:06:21;;;;;;;;;;;;;;;17.08;47.35;100852.91;5061026;28;1195;-53
2023/04/10 10:08:47;;;;;;;;;;;;;;;16.62;47.99;100856.44;5055416;28;1979;-52
2023/04/10 10:11:12;;;;;;;;;;;;;;;16.04;49.73;100846.34;5055283;28;1186;-52
2023/04/10 10:13:47;;;;;;;;;;;;;;;15.77;50.54;100841.00;5055517;28;1218;-50
2023/04/10 10:16:28;;;;;;;;;;;;;;;15.65;50.65;100852.16;5050057;28;1171;-51
2023/04/10 10:18:57;;;;;;;;;;;;;;;16.88;47.89;100843.56;5059344;28;1210;-48
2023/04/10 10:21:22;;;;;;;;;;;;;;;16.74;47.94;100842.44;5071572;28;1106;-46
2023/04/10 10:23:52;;;;;;;;;;;;;;;16.12;49.35;100838.69;5075467;28;1086;-48
2023/04/10 10:26:18;;;;;;;;;;;;;;;15.83;50.15;100839.16;5075523;28;1129;-49
2023/04/10 10:28:44;;;;;;;;;;;;;;;15.68;50.64;100837.94;5075438;28;1918;-46
2023/04/10 10:31:09;;;;;;;;;;;;;;;15.56;50.90;100840.06;5046828;28;1078;-49
2023/04/10 10:33:35;;;;;;;;;;;;;;;15.45;51.17;100838.38;5072808;28;1104;-47
2023/04/10 10:36:02;;;;;;;;;;;;;;;15.73;50.72;100827.00;5075152;28;1065;-50
2023/04/10 10:38:27;;;;;;;;;;;;;;;17.20;47.02;100823.22;5075451;28;1209;-50
2023/04/10 10:41:08;;;;;;;;;;;;;;;16.82;47.74;100821.84;5059135;28;1185;-46
2023/04/10 10:43:34;;;;;;;;;;;;;;;16.06;49.80;100824.97;5063115;28;1221;-49
2023/04/10 10:46:03;;;;;;;;;;;;;;;15.85;50.22;100825.97;5070427;28;1302;-46
2023/04/10 10:48:28;;;;;;;;;;;;;;;15.67;51.01;100813.53;5044205;28;1910;-47
2023/04/10 10:50:58;;;;;;;;;;;;;;;15.65;50.85;100808.31;5075476;28;1149;-46
2023/04/10 10:53:42;;;;;;;;;;;;;;;17.22;47.00;100792.72;5066600;28;999;-47
2023/04/10 10:56:31;;;;;;;;;;;;;;;16.54;48.40;100780.09;5063721;28;1102;-46
2023/04/10 10:58:57;;;;;;;;;;;;;;;16.03;50.07;100789.88;5045007;28;1902;-47
2023/04/10 11:01:23;;;;;;;;;;;;;;;15.78;50.79;100778.75;5074820;28;1067;-48
2023/04/10 11:03:48;;;;;;;;;;;;;;;15.67;50.80;100775.16;5076293;28;1239;-49
2023/04/10 11:06:15;;;;;;;;;;;;;;;15.54;51.32;100796.50;5062488;28;1130;-47
2023/04/10 11:08:43;;;;;;;;;;;;;;;15.45;51.56;100783.56;5075870;28;1901;-45
2023/04/10 11:11:23;;;;;;;;;;;;;;;16.97;47.66;100785.31;5076008;28;1066;-47
2023/04/10 11:13:50;;;;;;;;;;;;;;;16.79;47.96;100767.44;5075382;28;1229;-49
2023/04/10 11:16:16;;;;;;;;;;;;;;;16.12;49.95;100783.84;5075743;28;1245;-48
2023/04/10 11:18:45;;;;;;;;;;;;;;;15.88;50.40;100776.91;5085854;28;1233;-48
2023/04/10 11:21:16;;;;;;;;;;;;;;;15.65;51.17;100777.34;5064649;28;1214;-49
2023/04/10 11:23:57;;;;;;;;;;;;;;;15.54;51.45;100774.56;5076118;28;1073;-46
2023/04/10 11:29:03;;;;;;;;;;;;;;;17.29;47.14;100771.25;5062326;28;1917;-49
2023/04/10 11:31:30;;;;;;;;;;;;;;;16.88;47.92;100763.91;5081301;28;852;-47
2023/04/10 11:33:56;;;;;;;;;;;;;;;16.24;49.86;100768.78;5075732;28;1063;-47
2023/04/10 11:36:22;;;;;;;;;;;;;;;16.14;50.21;100760.53;5075311;28;1177;-48
2023/04/10 11:38:54;;;;;;;;;;;;;;;15.91;50.85;100759.09;5075651;28;1081;-48
2023/04/10 11:41:20;;;;;;;;;;;;;;;15.73;51.17;100769.41;5076032;28;1162;-49
2023/04/10 11:43:49;;;;;;;;;;;;;;;16.46;49.72;100764.16;5080933;28;1125;-46
2023/04/10 11:46:15;;;;;;;;;;;;;;;17.64;46.51;100753.00;5037425;28;1211;-47
2023/04/10 11:48:41;;;;;;;;;;;;;;;16.63;49.12;100756.47;5065024;28;1909;-48
2023/04/10 11:51:07;;;;;;;;;;;;;;;16.16;50.31;100760.25;5075316;28;1011;-47
2023/04/10 11:53:33;;;;;;;;;;;;;;;15.91;50.99;100753.63;5070855;28;1197;-46
2023/04/10 11:55:58;;;;;;;;;;;;;;;15.83;50.89;100754.16;5056128;28;1272;-50
2023/04/10 11:58:25;;;;;;;;;;;;;;;15.65;51.37;100761.72;5076795;28;1126;-49
2023/04/10 12:01:00;;;;;;;;;;;;;;;15.59;51.70;100760.06;5079602;28;1016;-43
2023/04/10 12:03:39;;;;;;;;;;;;;;;17.08;47.93;100749.34;5079301;28;1062;-47
2023/04/10 12:06:11;;;;;;;;;;;;;;;16.75;48.45;100746.03;5083886;28;1074;-49
2023/04/10 12:08:41;;;;;;;;;;;;;;;16.18;49.94;100744.38;5079376;28;1984;-48
2023/04/10 12:11:07;;;;;;;;;;;;;;;15.91;50.79;100737.97;5079551;28;1123;-46
2023/04/10 12:13:33;;;;;;;;;;;;;;;15.78;51.28;100748.59;5078890;28;1039;-46
2023/04/10 12:16:02;;;;;;;;;;;;;;;15.63;51.53;100741.16;5078863;28;1086;-49
2023/04/10 12:18:29;;;;;;;;;;;;;;;17.09;48.03;100741.91;5072982;28;1228;-47
2023/04/10 12:20:56;;;;;;;;;;;;;;;16.79;48.58;100731.75;5055616;28;1054;-48
2023/04/10 12:23:22;;;;;;;;;;;;;;;16.20;50.15;100733.94;5058940;28;1166;-46
2023/04/10 12:25:48;;;;;;;;;;;;;;;15.90;50.73;100719.88;5076882;28;1107;-48
2023/04/10 12:28:17;;;;;;;;;;;;;;;15.74;51.33;100729.16;5060770;28;1969;-49
2023/04/10 12:30:47;;;;;;;;;;;;;;;16.41;49.83;100721.88;5042797;28;1183;-45
2023/04/10 12:33:12;;;;;;;;;;;;;;;17.39;46.96;100709.94;5057429;28;1339;-51
2023/04/10 12:35:38;;;;;;;;;;;;;;;16.45;49.60;100702.13;5057294;28;1305;-52
2023/04/10 12:38:04;;;;;;;;;;;;;;;16.10;50.45;100712.78;5074150;28;1194;-52
2023/04/10 12:40:30;;;;;;;;;;;;;;;15.89;50.72;100711.94;5077288;28;1269;-48
2023/04/10 12:42:56;;;;;;;;;;;;;;;15.73;51.33;100709.09;5071266;28;1198;-50
2023/04/10 12:45:21;;;;;;;;;;;;;;;15.61;51.48;100696.75;5057382;28;1218;-51
2023/04/10 12:47:47;;;;;;;;;;;;;;;15.51;51.54;100705.75;5039058;28;1977;-50
2023/04/10 12:50:14;;;;;;;;;;;;;;;16.12;50.35;100687.81;5057238;28;1242;-51
2023/04/10 12:52:40;;;;;;;;;;;;;;;17.47;46.93;100689.31;5039375;28;1301;-51
2023/04/10 12:55:10;;;;;;;;;;;;;;;16.72;48.75;100680.69;5060094;28;1250;-51
2023/04/10 12:57:36;;;;;;;;;;;;;;;16.16;50.22;100678.78;5056865;28;1262;-48
2023/04/10 13:00:03;;;;;;;;;;;;;;;15.94;50.80;100687.25;5042831;28;1278;-52
2023/04/10 13:02:29;;;;;;;;;;;;;;;15.77;51.06;100686.63;5076697;28;928;-48